Time;durP1;ratioP1;P1;durP2;ratioP2;P2;SDS_P1;SDS_P2;PMS_P1;PMS_P2;Temp;Humidity;BMP_temperature;BMP_pressure;BME280_temperature;BME280_humidity;BME280_pressure;Samples;Min_cycle;Max_cycle;Signal;HPM_P1;HPM_P2
2022/03/09 00:02:20;;;;;;;23.37;17.03;;;;;;;;;;5029457;28;20281;-82
2022/03/09 00:04:49;;;;;;;22.20;17.07;;;;;;;;;;5029129;28;20230;-82
2022/03/09 00:07:16;;;;;;;22.30;16.40;;;;;;;;;;5029047;28;20289;-82
2022/03/09 00:09:43;;;;;;;20.97;15.83;;;;;;;;;;5028963;28;20201;-82
2022/03/09 00:12:11;;;;;;;22.73;16.80;;;;;;;;;;5028947;28;20574;-82
2022/03/09 00:14:38;;;;;;;22.63;17.33;;;;;;;;;;5029447;28;20238;-82
2022/03/09 00:17:06;;;;;;;22.33;15.47;;;;;;;;;;5028508;28;20234;-81
2022/03/09 00:19:34;;;;;;;20.43;15.07;;;;;;;;;;5029269;28;20258;-82
2022/03/09 00:22:01;;;;;;;20.67;16.43;;;;;;;;;;5028824;28;20708;-82
2022/03/09 00:24:29;;;;;;;20.43;16.17;;;;;;;;;;5028976;28;20199;-82
2022/03/09 00:26:56;;;;;;;24.93;18.30;;;;;;;;;;5028951;28;20647;-82
2022/03/09 00:29:23;;;;;;;20.07;15.60;;;;;;;;;;5028896;28;20277;-82
2022/03/09 00:31:50;;;;;;;21.80;17.07;;;;;;;;;;5028716;28;20762;-81
2022/03/09 00:34:18;;;;;;;21.17;16.60;;;;;;;;;;5029049;28;20209;-82
2022/03/09 00:36:47;;;;;;;23.53;17.03;;;;;;;;;;5028962;28;20333;-81
2022/03/09 00:39:14;;;;;;;20.57;17.00;;;;;;;;;;5028719;28;20226;-82
2022/03/09 00:41:41;;;;;;;20.60;15.93;;;;;;;;;;5032313;28;20675;-82
2022/03/09 00:44:08;;;;;;;21.93;16.20;;;;;;;;;;5031946;28;20246;-82
2022/03/09 00:46:36;;;;;;;19.13;15.33;;;;;;;;;;5032050;28;20659;-82
2022/03/09 00:49:03;;;;;;;20.63;15.93;;;;;;;;;;5032194;28;20586;-82
2022/03/09 00:51:30;;;;;;;23.17;17.43;;;;;;;;;;5032106;28;20249;-81
2022/03/09 00:53:59;;;;;;;19.10;15.40;;;;;;;;;;5032023;28;20198;-82
2022/03/09 00:56:26;;;;;;;23.80;16.23;;;;;;;;;;5031968;28;20293;-82
2022/03/09 00:58:53;;;;;;;22.60;15.30;;;;;;;;;;5031884;28;20229;-82
2022/03/09 01:01:21;;;;;;;24.20;16.77;;;;;;;;;;5031958;28;20190;-82
2022/03/09 01:03:48;;;;;;;23.10;17.30;;;;;;;;;;5031638;28;20727;-82
2022/03/09 01:06:16;;;;;;;23.03;16.03;;;;;;;;;;5031896;28;20199;-82
2022/03/09 01:08:44;;;;;;;21.00;15.97;;;;;;;;;;5032014;28;20203;-82
2022/03/09 01:11:13;;;;;;;23.77;17.63;;;;;;;;;;5031865;28;20286;-81
2022/03/09 01:13:40;;;;;;;22.43;17.33;;;;;;;;;;5031455;28;20238;-82
2022/03/09 01:16:07;;;;;;;21.93;17.10;;;;;;;;;;5031572;28;20227;-81
2022/03/09 01:18:34;;;;;;;24.47;18.23;;;;;;;;;;5031557;28;20227;-82
2022/03/09 01:21:02;;;;;;;21.50;16.80;;;;;;;;;;5032049;28;20195;-82
2022/03/09 01:23:29;;;;;;;21.23;15.97;;;;;;;;;;5031318;28;20233;-81
2022/03/09 01:25:56;;;;;;;25.87;18.80;;;;;;;;;;5031580;28;20705;-82
2022/03/09 01:28:25;;;;;;;25.73;17.73;;;;;;;;;;5031738;28;20315;-82
2022/03/09 01:30:52;;;;;;;25.13;17.57;;;;;;;;;;5031827;28;20238;-82
2022/03/09 01:33:19;;;;;;;21.43;16.40;;;;;;;;;;5031120;28;20290;-82
2022/03/09 01:35:46;;;;;;;27.27;18.37;;;;;;;;;;5031509;28;20314;-82
2022/03/09 01:38:14;;;;;;;25.17;17.20;;;;;;;;;;5031431;28;20601;-82
2022/03/09 01:40:41;;;;;;;23.27;16.77;;;;;;;;;;5031349;28;20226;-82
2022/03/09 01:43:08;;;;;;;22.90;16.37;;;;;;;;;;5031233;28;20739;-82
2022/03/09 01:45:37;;;;;;;21.23;15.93;;;;;;;;;;5031081;28;20238;-82
2022/03/09 01:48:05;;;;;;;21.87;17.27;;;;;;;;;;5031165;28;20198;-82
2022/03/09 01:50:32;;;;;;;22.87;17.40;;;;;;;;;;5031222;28;20290;-82
2022/03/09 01:52:59;;;;;;;21.07;15.87;;;;;;;;;;5030581;28;20586;-82
2022/03/09 01:55:26;;;;;;;21.33;16.90;;;;;;;;;;5031031;28;20214;-82
2022/03/09 01:57:54;;;;;;;23.27;17.83;;;;;;;;;;5031028;28;20690;-82
2022/03/09 02:00:22;;;;;;;21.37;15.90;;;;;;;;;;5031363;28;20218;-82
2022/03/09 02:02:51;;;;;;;25.20;19.43;;;;;;;;;;5030828;28;20260;-82
2022/03/09 02:05:18;;;;;;;21.40;16.53;;;;;;;;;;5030844;28;20237;-82
2022/03/09 02:10:30;;;;;;;18.80;15.27;;;;;;;;;;5031212;28;20212;-82
2022/03/09 02:12:57;;;;;;;21.70;16.67;;;;;;;;;;5030867;28;20639;-82
2022/03/09 02:15:24;;;;;;;24.13;17.07;;;;;;;;;;5030860;28;20200;-82
2022/03/09 02:17:53;;;;;;;22.07;17.17;;;;;;;;;;5030553;28;20329;-83
2022/03/09 02:20:20;;;;;;;23.90;17.50;;;;;;;;;;5030692;28;20703;-82
2022/03/09 02:22:49;;;;;;;25.53;18.10;;;;;;;;;;5030734;28;20592;-82
2022/03/09 02:25:17;;;;;;;25.60;18.53;;;;;;;;;;5030700;28;20620;-83
2022/03/09 02:27:45;;;;;;;24.70;17.73;;;;;;;;;;5030554;28;20198;-83
2022/03/09 02:30:14;;;;;;;24.57;16.77;;;;;;;;;;5031919;28;20282;-83
2022/03/09 02:32:42;;;;;;;24.23;17.70;;;;;;;;;;5030151;28;20290;-83
2022/03/09 02:35:10;;;;;;;23.23;17.07;;;;;;;;;;5030250;28;20198;-83
2022/03/09 02:37:37;;;;;;;24.13;16.10;;;;;;;;;;5030496;28;20221;-83
2022/03/09 02:40:09;;;;;;;24.37;17.17;;;;;;;;;;5030333;28;20602;-83
2022/03/09 02:42:36;;;;;;;22.53;16.73;;;;;;;;;;5030318;28;20206;-82
2022/03/09 02:45:05;;;;;;;22.73;16.00;;;;;;;;;;5030404;28;20631;-82
2022/03/09 02:47:32;;;;;;;25.03;17.57;;;;;;;;;;5029865;28;20242;-82
2022/03/09 02:49:59;;;;;;;19.83;15.43;;;;;;;;;;5029705;28;20283;-83
2022/03/09 02:52:27;;;;;;;22.43;16.40;;;;;;;;;;5029906;28;20697;-83
2022/03/09 02:54:54;;;;;;;20.93;16.27;;;;;;;;;;5030124;28;20295;-83
2022/03/09 02:57:23;;;;;;;21.63;16.80;;;;;;;;;;5030173;28;20206;-83
2022/03/09 02:59:51;;;;;;;23.17;16.30;;;;;;;;;;5029966;28;20305;-82
2022/03/09 03:02:18;;;;;;;21.43;16.03;;;;;;;;;;5029674;28;20293;-84
2022/03/09 03:04:45;;;;;;;22.57;17.70;;;;;;;;;;5029726;28;20293;-83
2022/03/09 03:07:12;;;;;;;22.30;15.97;;;;;;;;;;5029630;28;20209;-84
2022/03/09 03:09:39;;;;;;;22.33;16.33;;;;;;;;;;5030010;28;20277;-83
2022/03/09 03:12:07;;;;;;;22.43;16.67;;;;;;;;;;5029855;28;20257;-83
2022/03/09 03:14:36;;;;;;;22.87;16.50;;;;;;;;;;5029899;28;20238;-83
2022/03/09 03:17:03;;;;;;;20.63;16.03;;;;;;;;;;5029403;28;20618;-83
2022/03/09 03:19:30;;;;;;;21.03;15.27;;;;;;;;;;5029623;28;20222;-84
2022/03/09 03:21:58;;;;;;;20.13;14.33;;;;;;;;;;5029364;28;20211;-83
2022/03/09 03:24:27;;;;;;;19.87;15.67;;;;;;;;;;5029890;28;20234;-82
2022/03/09 03:26:54;;;;;;;20.97;15.10;;;;;;;;;;5029765;28;20966;-83
2022/03/09 03:29:21;;;;;;;21.47;16.10;;;;;;;;;;5029404;28;20205;-83
2022/03/09 03:31:50;;;;;;;20.63;14.93;;;;;;;;;;5029642;28;20301;-82
2022/03/09 03:34:17;;;;;;;17.83;13.80;;;;;;;;;;5029398;28;20206;-84
2022/03/09 03:36:45;;;;;;;18.63;14.40;;;;;;;;;;5029405;28;20572;-83
2022/03/09 03:39:13;;;;;;;17.85;13.45;;;;;;;;;;5029387;28;20194;-83
2022/03/09 03:41:40;;;;;;;20.53;14.40;;;;;;;;;;5029080;28;20280;-83
2022/03/09 03:44:08;;;;;;;18.23;14.23;;;;;;;;;;5029339;28;20210;-83
2022/03/09 03:46:35;;;;;;;18.13;14.07;;;;;;;;;;5028857;28;20199;-82
2022/03/09 03:49:05;;;;;;;18.60;14.07;;;;;;;;;;5029193;28;20285;-83
2022/03/09 03:51:32;;;;;;;21.17;15.20;;;;;;;;;;5029105;28;20683;-82
2022/03/09 03:53:59;;;;;;;19.70;13.63;;;;;;;;;;5028772;28;20234;-81
2022/03/09 03:56:26;;;;;;;19.87;14.80;;;;;;;;;;5029120;28;20202;-81
2022/03/09 03:58:53;;;;;;;20.00;15.50;;;;;;;;;;5029187;28;20203;-81
2022/03/09 04:01:21;;;;;;;21.67;14.80;;;;;;;;;;5028608;28;20313;-82
2022/03/09 04:03:48;;;;;;;22.40;16.23;;;;;;;;;;5029123;28;20716;-82
2022/03/09 04:06:17;;;;;;;21.83;14.93;;;;;;;;;;5028869;28;20199;-82
2022/03/09 04:08:44;;;;;;;19.43;15.60;;;;;;;;;;5029164;28;20233;-82
2022/03/09 04:11:11;;;;;;;18.23;14.73;;;;;;;;;;5029339;28;20556;-82
2022/03/09 04:13:38;;;;;;;16.10;14.23;;;;;;;;;;5028601;28;20238;-82
2022/03/09 04:16:06;;;;;;;20.33;15.50;;;;;;;;;;5027620;28;20203;-82
2022/03/09 04:18:33;;;;;;;20.97;16.10;;;;;;;;;;5027894;28;20187;-82
2022/03/09 04:21:00;;;;;;;20.73;15.43;;;;;;;;;;5028107;28;20640;-82
2022/03/09 04:23:29;;;;;;;21.00;15.23;;;;;;;;;;5027865;28;20195;-82
2022/03/09 04:25:56;;;;;;;20.80;15.73;;;;;;;;;;5027742;28;20552;-82
2022/03/09 04:28:23;;;;;;;88.57;48.83;;;;;;;;;;5027948;28;20273;-82
2022/03/09 04:30:51;;;;;;;63.87;41.80;;;;;;;;;;5027386;28;20234;-82
2022/03/09 04:33:18;;;;;;;51.60;33.50;;;;;;;;;;5027658;28;20201;-82
2022/03/09 04:35:45;;;;;;;24.37;17.43;;;;;;;;;;5027992;28;20222;-83
2022/03/09 04:38:12;;;;;;;19.53;15.07;;;;;;;;;;5042799;28;20202;-84
2022/03/09 04:40:41;;;;;;;20.43;15.53;;;;;;;;;;5047796;28;20229;-82
2022/03/09 04:43:08;;;;;;;21.43;15.33;;;;;;;;;;5047042;28;20641;-82
2022/03/09 04:45:35;;;;;;;19.53;14.27;;;;;;;;;;5047568;28;20197;-81
2022/03/09 04:48:03;;;;;;;21.87;14.83;;;;;;;;;;5047261;28;20678;-80
2022/03/09 04:50:30;;;;;;;18.03;14.07;;;;;;;;;;5047308;28;20216;-81
2022/03/09 04:52:57;;;;;;;19.70;13.73;;;;;;;;;;5047527;28;20269;-82
2022/03/09 04:55:24;;;;;;;18.83;13.97;;;;;;;;;;5047139;28;20244;-81
2022/03/09 04:57:53;;;;;;;19.50;14.83;;;;;;;;;;5047289;28;20292;-82
2022/03/09 05:00:20;;;;;;;17.73;13.73;;;;;;;;;;5046863;28;20321;-81
2022/03/09 05:02:47;;;;;;;16.53;12.93;;;;;;;;;;5047375;28;20619;-81
2022/03/09 05:05:15;;;;;;;16.60;13.27;;;;;;;;;;5047410;28;20198;-82
2022/03/09 05:07:42;;;;;;;15.77;12.43;;;;;;;;;;5048018;28;20206;-82
2022/03/09 05:10:10;;;;;;;19.60;13.67;;;;;;;;;;5047905;28;20306;-81
2022/03/09 05:12:37;;;;;;;17.00;12.53;;;;;;;;;;5047661;28;20250;-81
2022/03/09 05:15:07;;;;;;;19.03;14.30;;;;;;;;;;5045620;28;20234;-82
2022/03/09 05:17:34;;;;;;;19.27;14.73;;;;;;;;;;5047917;28;20294;-82
2022/03/09 05:20:01;;;;;;;20.37;13.93;;;;;;;;;;5047846;28;20728;-82
2022/03/09 05:22:28;;;;;;;19.83;15.57;;;;;;;;;;5047946;28;20241;-82
2022/03/09 05:24:56;;;;;;;18.40;14.17;;;;;;;;;;5048478;28;20208;-82
2022/03/09 05:27:27;;;;;;;16.87;12.90;;;;;;;;;;5049558;28;20252;-82
2022/03/09 05:29:54;;;;;;;18.63;15.00;;;;;;;;;;5051540;28;20178;-82
2022/03/09 05:32:23;;;;;;;18.90;13.80;;;;;;;;;;5051006;28;20244;-82
2022/03/09 05:34:51;;;;;;;18.30;14.03;;;;;;;;;;5051873;28;20284;-82
2022/03/09 05:37:18;;;;;;;23.07;16.70;;;;;;;;;;5051497;28;20201;-82
2022/03/09 05:39:45;;;;;;;24.37;15.93;;;;;;;;;;5051649;28;20689;-82
2022/03/09 05:42:12;;;;;;;22.63;16.93;;;;;;;;;;5050955;28;20251;-81
2022/03/09 05:44:40;;;;;;;24.53;18.57;;;;;;;;;;5051323;28;20262;-82
2022/03/09 05:47:07;;;;;;;23.47;18.07;;;;;;;;;;5051179;28;20701;-82
2022/03/09 05:49:36;;;;;;;22.50;15.47;;;;;;;;;;5051034;28;20205;-82
2022/03/09 05:52:05;;;;;;;20.23;15.17;;;;;;;;;;5051216;28;20621;-82
2022/03/09 05:54:32;;;;;;;21.00;15.63;;;;;;;;;;5051136;28;20194;-82
2022/03/09 05:56:59;;;;;;;40.90;30.97;;;;;;;;;;5050882;28;20266;-82
2022/03/09 05:59:26;;;;;;;29.13;22.17;;;;;;;;;;5050961;28;20233;-82
2022/03/09 06:01:53;;;;;;;27.60;19.13;;;;;;;;;;5051101;28;20400;-82
2022/03/09 06:04:21;;;;;;;25.00;18.03;;;;;;;;;;5051112;28;20200;-83
2022/03/09 06:06:49;;;;;;;25.67;17.23;;;;;;;;;;5050538;28;20709;-82
2022/03/09 06:09:17;;;;;;;22.73;17.23;;;;;;;;;;5051150;28;20609;-82
2022/03/09 06:11:44;;;;;;;22.33;17.03;;;;;;;;;;5050831;28;20584;-82
2022/03/09 06:14:11;;;;;;;24.30;18.53;;;;;;;;;;5050795;28;20293;-82
2022/03/09 06:16:38;;;;;;;24.00;17.40;;;;;;;;;;5050158;28;20265;-81
2022/03/09 06:19:06;;;;;;;22.80;16.60;;;;;;;;;;5050674;28;20238;-82
2022/03/09 06:21:33;;;;;;;25.33;17.33;;;;;;;;;;5050801;28;20308;-82
2022/03/09 06:24:02;;;;;;;23.13;17.37;;;;;;;;;;5050467;28;20198;-82
2022/03/09 06:26:30;;;;;;;20.43;16.63;;;;;;;;;;5050414;28;20198;-82
2022/03/09 06:28:57;;;;;;;23.60;17.50;;;;;;;;;;5050802;28;20727;-82
2022/03/09 06:31:24;;;;;;;28.40;20.20;;;;;;;;;;5050692;28;20581;-81
2022/03/09 06:33:51;;;;;;;28.30;19.67;;;;;;;;;;5050303;28;20658;-82
2022/03/09 06:36:19;;;;;;;24.23;17.53;;;;;;;;;;5050378;28;20198;-82
2022/03/09 06:38:46;;;;;;;22.87;16.20;;;;;;;;;;5050531;28;20198;-82
2022/03/09 06:41:15;;;;;;;26.63;18.40;;;;;;;;;;5050208;28;20314;-82
2022/03/09 06:43:42;;;;;;;25.73;19.07;;;;;;;;;;5050141;28;20195;-82
2022/03/09 06:46:09;;;;;;;22.27;17.17;;;;;;;;;;5050047;28;20731;-82
2022/03/09 06:48:37;;;;;;;20.67;15.87;;;;;;;;;;5050079;28;20283;-82
2022/03/09 06:51:04;;;;;;;20.50;15.17;;;;;;;;;;5050231;28;20281;-82
2022/03/09 06:53:31;;;;;;;19.40;13.67;;;;;;;;;;5050026;28;20229;-82
2022/03/09 06:55:59;;;;;;;18.73;14.83;;;;;;;;;;5050121;28;20198;-82
2022/03/09 06:58:27;;;;;;;17.93;13.33;;;;;;;;;;5049950;28;20234;-82
2022/03/09 07:00:55;;;;;;;22.40;15.77;;;;;;;;;;5050219;28;20276;-82
2022/03/09 07:03:23;;;;;;;33.03;23.37;;;;;;;;;;5050055;28;20198;-82
2022/03/09 07:05:50;;;;;;;134.17;65.63;;;;;;;;;;5047813;28;20201;-82
2022/03/09 07:08:17;;;;;;;48.43;34.60;;;;;;;;;;5049671;28;20202;-82
2022/03/09 07:10:46;;;;;;;27.33;19.67;;;;;;;;;;5049836;28;20285;-82
2022/03/09 07:13:13;;;;;;;18.00;14.97;;;;;;;;;;5049409;28;20230;-81
2022/03/09 07:15:41;;;;;;;22.50;16.53;;;;;;;;;;5049815;28;20230;-82
2022/03/09 07:18:09;;;;;;;25.70;16.87;;;;;;;;;;5049633;28;20325;-82
2022/03/09 07:20:36;;;;;;;21.17;15.00;;;;;;;;;;5049612;28;20250;-82
2022/03/09 07:23:03;;;;;;;18.20;13.30;;;;;;;;;;5049451;28;20745;-82
2022/03/09 07:25:30;;;;;;;19.20;13.83;;;;;;;;;;5049370;28;20742;-82
2022/03/09 07:27:58;;;;;;;16.97;14.47;;;;;;;;;;5049563;28;20194;-81
2022/03/09 07:30:25;;;;;;;22.20;13.87;;;;;;;;;;5049574;28;20692;-82
2022/03/09 07:32:53;;;;;;;17.23;13.33;;;;;;;;;;5049672;28;20576;-81
2022/03/09 07:35:21;;;;;;;17.37;14.03;;;;;;;;;;5049286;28;20208;-82
2022/03/09 07:37:50;;;;;;;17.80;13.50;;;;;;;;;;5049357;28;20192;-82
2022/03/09 07:40:17;;;;;;;15.07;12.20;;;;;;;;;;5049767;28;20220;-81
2022/03/09 07:42:44;;;;;;;18.80;14.07;;;;;;;;;;5049170;28;20240;-81
2022/03/09 07:45:11;;;;;;;16.53;13.03;;;;;;;;;;5049376;28;20201;-82
2022/03/09 07:47:39;;;;;;;22.03;15.50;;;;;;;;;;5049257;28;20233;-82
2022/03/09 07:50:08;;;;;;;18.53;14.00;;;;;;;;;;5048471;28;20701;-81
2022/03/09 07:52:36;;;;;;;18.17;14.53;;;;;;;;;;5049190;28;20270;-82
2022/03/09 07:55:04;;;;;;;16.53;12.67;;;;;;;;;;5049480;28;20229;-81
2022/03/09 07:57:31;;;;;;;19.03;14.73;;;;;;;;;;5048917;28;20292;-82
2022/03/09 08:00:00;;;;;;;18.60;14.67;;;;;;;;;;5049461;28;20277;-82
2022/03/09 08:02:27;;;;;;;17.00;11.80;;;;;;;;;;5049043;28;20264;-82
2022/03/09 08:04:54;;;;;;;21.30;14.20;;;;;;;;;;5048739;28;20264;-82
2022/03/09 08:07:23;;;;;;;17.07;13.10;;;;;;;;;;5048959;28;20252;-82
2022/03/09 08:09:50;;;;;;;17.03;14.67;;;;;;;;;;5048616;28;20198;-82
2022/03/09 08:12:17;;;;;;;15.53;12.40;;;;;;;;;;5049163;28;20225;-82
2022/03/09 08:14:45;;;;;;;19.13;12.83;;;;;;;;;;5048799;28;20197;-82
2022/03/09 08:17:12;;;;;;;15.70;14.00;;;;;;;;;;5048803;28;20243;-82
2022/03/09 08:19:40;;;;;;;17.50;13.53;;;;;;;;;;5048868;28;20202;-82
2022/03/09 08:22:08;;;;;;;13.87;11.23;;;;;;;;;;5048958;28;20221;-82
2022/03/09 08:24:37;;;;;;;14.93;12.40;;;;;;;;;;5048897;28;20584;-82
2022/03/09 08:27:04;;;;;;;15.67;12.57;;;;;;;;;;5048626;28;20674;-82
2022/03/09 08:29:32;;;;;;;13.83;11.43;;;;;;;;;;5048797;28;20301;-82
2022/03/09 08:31:59;;;;;;;18.20;12.53;;;;;;;;;;5048414;28;20285;-82
2022/03/09 08:34:26;;;;;;;14.83;11.57;;;;;;;;;;5049019;28;20305;-82
2022/03/09 08:36:53;;;;;;;13.53;10.80;;;;;;;;;;5048565;28;20285;-82
2022/03/09 08:39:20;;;;;;;15.43;12.40;;;;;;;;;;5048772;28;20230;-82
2022/03/09 08:41:49;;;;;;;13.90;12.17;;;;;;;;;;5048189;28;20720;-82
2022/03/09 08:44:17;;;;;;;16.13;12.17;;;;;;;;;;5048678;28;20209;-82
2022/03/09 08:46:44;;;;;;;14.50;11.67;;;;;;;;;;5048303;28;20674;-82
2022/03/09 08:49:11;;;;;;;14.47;11.87;;;;;;;;;;5048606;28;20241;-82
2022/03/09 08:51:38;;;;;;;16.03;12.57;;;;;;;;;;5048245;28;20190;-82
2022/03/09 08:54:06;;;;;;;16.90;11.47;;;;;;;;;;5048810;28;20636;-82
2022/03/09 08:56:33;;;;;;;13.43;11.20;;;;;;;;;;5048245;28;20280;-82
2022/03/09 08:59:02;;;;;;;14.53;11.83;;;;;;;;;;5048465;28;20559;-82
2022/03/09 09:01:29;;;;;;;15.33;12.53;;;;;;;;;;5049623;28;20270;-82
2022/03/09 09:03:56;;;;;;;14.20;12.33;;;;;;;;;;5052213;28;20577;-82
2022/03/09 09:06:23;;;;;;;14.17;12.67;;;;;;;;;;5051962;28;20194;-82
2022/03/09 09:08:50;;;;;;;15.27;12.40;;;;;;;;;;5051746;28;20237;-82
2022/03/09 09:11:18;;;;;;;14.33;12.63;;;;;;;;;;5051937;28;20198;-83
2022/03/09 09:13:45;;;;;;;17.90;14.53;;;;;;;;;;5051627;28;20292;-82
2022/03/09 09:16:13;;;;;;;14.73;11.20;;;;;;;;;;5051617;28;20194;-82
2022/03/09 09:18:43;;;;;;;14.27;11.27;;;;;;;;;;5051257;28;20197;-81
2022/03/09 09:21:10;;;;;;;12.27;11.03;;;;;;;;;;5051553;28;20193;-82
2022/03/09 09:23:39;;;;;;;15.37;12.07;;;;;;;;;;5051396;28;20729;-82
2022/03/09 09:26:06;;;;;;;12.70;11.33;;;;;;;;;;5051526;28;20251;-81
2022/03/09 09:28:33;;;;;;;13.27;11.83;;;;;;;;;;5051411;28;20198;-81
2022/03/09 09:31:01;;;;;;;12.50;10.80;;;;;;;;;;5051237;28;20298;-82
2022/03/09 09:33:29;;;;;;;11.30;9.70;;;;;;;;;;5051180;28;20697;-81
2022/03/09 09:35:57;;;;;;;12.87;11.53;;;;;;;;;;5051343;28;20682;-81
2022/03/09 09:38:24;;;;;;;11.90;10.20;;;;;;;;;;5050862;28;20201;-81
2022/03/09 09:40:53;;;;;;;28.53;19.23;;;;;;;;;;5051379;28;20240;-81
2022/03/09 09:43:21;;;;;;;49.30;33.37;;;;;;;;;;5050973;28;20218;-81
2022/03/09 09:45:48;;;;;;;26.50;19.33;;;;;;;;;;5051284;28;20197;-81
2022/03/09 09:48:17;;;;;;;13.03;11.33;;;;;;;;;;5050806;28;20254;-81
2022/03/09 09:50:47;;;;;;;17.33;14.60;;;;;;;;;;5051401;28;20202;-81
2022/03/09 09:53:16;;;;;;;16.60;12.10;;;;;;;;;;5051235;28;20225;-81
2022/03/09 09:55:44;;;;;;;13.97;10.90;;;;;;;;;;5051077;28;20205;-81
2022/03/09 09:58:12;;;;;;;18.23;13.87;;;;;;;;;;5050800;28;20190;-82
2022/03/09 10:00:39;;;;;;;14.43;11.27;;;;;;;;;;5050841;28;20662;-82
2022/03/09 10:03:06;;;;;;;19.13;13.57;;;;;;;;;;5050761;28;20229;-81
2022/03/09 10:05:34;;;;;;;13.50;10.90;;;;;;;;;;5050909;28;20237;-82
2022/03/09 10:08:18;;;;;;;12.33;10.83;;;;;;;;;;5050419;28;20285;-81
2022/03/09 10:10:47;;;;;;;15.60;9.80;;;;;;;;;;5050869;28;20190;-81
2022/03/09 10:13:16;;;;;;;12.33;11.03;;;;;;;;;;5049886;28;20190;-81
2022/03/09 10:15:44;;;;;;;12.60;11.00;;;;;;;;;;5050596;28;20204;-81
2022/03/09 10:18:16;;;;;;;11.37;9.80;;;;;;;;;;5050423;28;20236;-81
2022/03/09 10:20:44;;;;;;;14.10;10.83;;;;;;;;;;5050715;28;20280;-82
2022/03/09 10:23:12;;;;;;;13.53;11.23;;;;;;;;;;5050304;28;20265;-81
2022/03/09 10:25:41;;;;;;;14.23;11.00;;;;;;;;;;5050684;28;20202;-81
2022/03/09 10:28:09;;;;;;;12.93;10.37;;;;;;;;;;5050401;28;20285;-81
2022/03/09 10:30:39;;;;;;;15.20;12.33;;;;;;;;;;5050549;28;20292;-81
2022/03/09 10:33:07;;;;;;;13.80;11.87;;;;;;;;;;5050085;28;20198;-81
2022/03/09 10:35:48;;;;;;;15.53;11.77;;;;;;;;;;5050819;28;20730;-81
2022/03/09 10:38:27;;;;;;;12.77;10.83;;;;;;;;;;5050287;28;20226;-81
2022/03/09 10:41:00;;;;;;;15.97;14.47;;;;;;;;;;5050690;28;20304;-81
2022/03/09 10:43:29;;;;;;;15.00;12.07;;;;;;;;;;5050121;28;20206;-81
2022/03/09 10:46:04;;;;;;;13.67;11.07;;;;;;;;;;5050332;28;20198;-81
2022/03/09 10:48:50;;;;;;;27.43;17.90;;;;;;;;;;5050210;28;20228;-81
2022/03/09 10:51:26;;;;;;;12.47;10.27;;;;;;;;;;5050303;28;20186;-81
2022/03/09 10:53:53;;;;;;;12.67;10.93;;;;;;;;;;5050104;27;20226;-81
2022/03/09 10:56:22;;;;;;;10.43;9.33;;;;;;;;;;5050332;28;20205;-81
2022/03/09 10:58:49;;;;;;;13.10;10.10;;;;;;;;;;5050006;28;20601;-82
2022/03/09 11:01:17;;;;;;;11.70;10.40;;;;;;;;;;5050281;28;20577;-82
2022/03/09 11:03:45;;;;;;;14.33;10.17;;;;;;;;;;5049683;28;20236;-81
2022/03/09 11:06:14;;;;;;;12.80;10.37;;;;;;;;;;5049936;28;20234;-82
2022/03/09 11:08:41;;;;;;;11.17;9.33;;;;;;;;;;5049805;28;20671;-81
2022/03/09 11:11:09;;;;;;;23.80;16.37;;;;;;;;;;5049887;28;20194;-81
2022/03/09 11:13:39;;;;;;;15.33;11.10;;;;;;;;;;5049453;28;20258;-82
2022/03/09 11:16:08;;;;;;;16.20;12.00;;;;;;;;;;5049751;28;20194;-81
2022/03/09 11:18:36;;;;;;;27.33;15.63;;;;;;;;;;5049692;28;20209;-81
2022/03/09 11:21:05;;;;;;;12.30;10.13;;;;;;;;;;5049633;28;20749;-81
2022/03/09 11:23:33;;;;;;;38.57;22.10;;;;;;;;;;5049501;28;20629;-81
2022/03/09 11:26:03;;;;;;;29.87;18.60;;;;;;;;;;5048695;28;20204;-81
2022/03/09 11:28:33;;;;;;;13.63;10.90;;;;;;;;;;5049515;28;20293;-81
2022/03/09 11:31:04;;;;;;;23.93;16.23;;;;;;;;;;5049843;28;20276;-81
2022/03/09 11:33:45;;;;;;;12.40;10.13;;;;;;;;;;5049875;28;20292;-81
2022/03/09 11:36:34;;;;;;;17.40;12.23;;;;;;;;;;5049365;28;20244;-82
2022/03/09 11:39:25;;;;;;;13.27;9.87;;;;;;;;;;5049467;28;20196;-81
2022/03/09 11:42:31;;;;;;;9.60;8.13;;;;;;;;;;5049195;28;20464;-81
2022/03/09 11:45:38;;;;;;;14.80;10.77;;;;;;;;;;5049161;28;20238;-81
2022/03/09 11:48:10;;;;;;;11.83;7.63;;;;;;;;;;5049343;28;20218;-81
2022/03/09 11:51:09;;;;;;;10.83;8.00;;;;;;;;;;5049332;28;20190;-81
2022/03/09 11:53:40;;;;;;;7.93;7.13;;;;;;;;;;5049056;28;20182;-81
2022/03/09 11:56:30;;;;;;;8.33;7.40;;;;;;;;;;5049408;28;20193;-81
2022/03/09 11:59:20;;;;;;;9.20;7.50;;;;;;;;;;5049155;28;20227;-81
2022/03/09 12:02:26;;;;;;;9.77;7.33;;;;;;;;;;5048910;28;20220;-81
2022/03/09 12:04:59;;;;;;;7.87;6.93;;;;;;;;;;5048948;28;20201;-81
2022/03/09 12:08:00;;;;;;;9.93;7.93;;;;;;;;;;5048927;28;20273;-81
2022/03/09 12:10:52;;;;;;;7.77;6.97;;;;;;;;;;5049601;28;20626;-81
2022/03/09 12:13:33;;;;;;;8.17;6.43;;;;;;;;;;5048852;28;20270;-81
2022/03/09 12:16:12;;;;;;;11.10;9.13;;;;;;;;;;5048956;28;20647;-81
2022/03/09 12:18:41;;;;;;;8.07;6.90;;;;;;;;;;5048944;28;20276;-82
2022/03/09 12:21:12;;;;;;;9.47;7.57;;;;;;;;;;5048895;28;20238;-81
2022/03/09 12:24:29;;;;;;;9.37;7.93;;;;;;;;;;5048676;28;20242;-81
2022/03/09 12:26:56;;;;;;;7.83;6.60;;;;;;;;;;5048653;28;20186;-81
2022/03/09 12:29:42;;;;;;;8.30;7.07;;;;;;;;;;5048772;28;20210;-81
2022/03/09 12:32:11;;;;;;;10.43;8.60;;;;;;;;;;5048957;28;20268;-81
2022/03/09 12:34:41;;;;;;;8.33;7.37;;;;;;;;;;5048716;28;20322;-81
2022/03/09 12:37:11;;;;;;;7.87;6.70;;;;;;;;;;5050752;28;20718;-81
2022/03/09 12:39:38;;;;;;;7.73;6.33;;;;;;;;;;5052388;28;20278;-81
2022/03/09 12:42:07;;;;;;;7.20;6.47;;;;;;;;;;5052025;28;20227;-82
2022/03/09 12:44:36;;;;;;;8.57;6.93;;;;;;;;;;5052225;28;20201;-81
2022/03/09 12:47:05;;;;;;;16.97;13.00;;;;;;;;;;5051790;28;20704;-82
2022/03/09 12:49:35;;;;;;;9.13;7.80;;;;;;;;;;5052176;28;20197;-81
2022/03/09 12:52:05;;;;;;;12.73;10.50;;;;;;;;;;5052472;28;20200;-81
2022/03/09 12:54:37;;;;;;;12.50;10.60;;;;;;;;;;5052395;28;20285;-82
2022/03/09 12:57:12;;;;;;;11.33;8.73;;;;;;;;;;5051748;28;20248;-81
2022/03/09 12:59:41;;;;;;;15.37;10.43;;;;;;;;;;5052382;28;20285;-82
2022/03/09 13:02:08;;;;;;;16.70;11.13;;;;;;;;;;5051965;28;20237;-80
2022/03/09 13:04:36;;;;;;;8.23;6.37;;;;;;;;;;5051883;28;20682;-80
2022/03/09 13:07:13;;;;;;;11.23;8.67;;;;;;;;;;5051443;28;20241;-80
2022/03/09 13:09:44;;;;;;;6.90;6.30;;;;;;;;;;5052031;28;20186;-80
2022/03/09 13:12:13;;;;;;;6.00;5.40;;;;;;;;;;5051679;28;20684;-80
2022/03/09 13:14:43;;;;;;;8.37;7.30;;;;;;;;;;5051737;28;20230;-82
2022/03/09 13:17:11;;;;;;;13.13;9.27;;;;;;;;;;5051129;28;20806;-82
2022/03/09 13:19:39;;;;;;;12.50;9.67;;;;;;;;;;5051792;28;20293;-80
2022/03/09 13:22:06;;;;;;;15.63;11.97;;;;;;;;;;5051518;28;20749;-81
2022/03/09 13:24:34;;;;;;;7.93;7.13;;;;;;;;;;5051661;28;20728;-80
2022/03/09 13:27:17;;;;;;;10.87;8.70;;;;;;;;;;5051150;28;20205;-80
2022/03/09 13:29:45;;;;;;;8.13;7.30;;;;;;;;;;5051559;28;20264;-80
2022/03/09 13:32:13;;;;;;;8.23;7.43;;;;;;;;;;5051477;27;20297;-80
2022/03/09 13:34:44;;;;;;;10.53;7.80;;;;;;;;;;5051299;28;20593;-80
2022/03/09 13:37:18;;;;;;;9.10;7.33;;;;;;;;;;5051360;28;20567;-80
2022/03/09 13:39:47;;;;;;;8.03;7.23;;;;;;;;;;5051596;28;20281;-81
2022/03/09 13:42:23;;;;;;;8.80;7.00;;;;;;;;;;5051594;28;20197;-81
2022/03/09 13:45:05;;;;;;;7.60;6.83;;;;;;;;;;5051259;28;20190;-83
2022/03/09 13:47:33;;;;;;;6.50;5.90;;;;;;;;;;5049831;28;20201;-80
2022/03/09 13:50:00;;;;;;;7.50;6.00;;;;;;;;;;5050914;28;20285;-80
2022/03/09 13:52:32;;;;;;;7.27;6.27;;;;;;;;;;5050998;28;20288;-80
2022/03/09 13:55:00;;;;;;;7.57;6.60;;;;;;;;;;5051039;28;20198;-81
2022/03/09 13:57:30;;;;;;;7.83;6.77;;;;;;;;;;5050917;28;20198;-81
2022/03/09 13:59:59;;;;;;;6.83;5.40;;;;;;;;;;5051418;28;20193;-81
2022/03/09 14:02:26;;;;;;;7.77;6.97;;;;;;;;;;5050744;28;20202;-81
2022/03/09 14:04:54;;;;;;;7.00;6.07;;;;;;;;;;5050696;28;20202;-81
2022/03/09 14:07:22;;;;;;;6.90;6.20;;;;;;;;;;5051036;28;20613;-80
2022/03/09 14:10:11;;;;;;;10.00;6.87;;;;;;;;;;5051262;28;20255;-81
2022/03/09 14:12:41;;;;;;;7.73;5.27;;;;;;;;;;5051050;28;20202;-80
2022/03/09 14:15:09;;;;;;;7.67;6.83;;;;;;;;;;5050636;28;20303;-80
2022/03/09 14:17:37;;;;;;;6.97;6.27;;;;;;;;;;5050509;28;20316;-81
2022/03/09 14:20:06;;;;;;;7.97;7.17;;;;;;;;;;5050768;28;20197;-82
2022/03/09 14:22:40;;;;;;;9.07;8.03;;;;;;;;;;5050862;28;20666;-81
2022/03/09 14:25:08;;;;;;;7.33;6.00;;;;;;;;;;5051005;28;20280;-81
2022/03/09 14:27:36;;;;;;;8.00;6.87;;;;;;;;;;5050292;28;20209;-81
2022/03/09 14:30:06;;;;;;;7.27;6.43;;;;;;;;;;5050597;28;20198;-81
2022/03/09 14:32:34;;;;;;;7.40;6.70;;;;;;;;;;5050467;28;20647;-81
2022/03/09 14:35:02;;;;;;;8.23;7.43;;;;;;;;;;5050493;28;20200;-81
2022/03/09 14:37:29;;;;;;;7.27;6.40;;;;;;;;;;5050641;28;20198;-81